sensor_id;sensor_type;location;lat;lon;timestamp;temperature;humidity
80701;DHT22;71609;42.630;23.380;2024-01-15T00:01:59;20.90;25.40
80701;DHT22;71609;42.630;23.380;2024-01-15T00:04:25;20.80;25.40
80701;DHT22;71609;42.630;23.380;2024-01-15T00:06:51;20.90;25.40
80701;DHT22;71609;42.630;23.380;2024-01-15T00:09:16;20.90;25.40
80701;DHT22;71609;42.630;23.380;2024-01-15T00:11:43;20.80;25.40
80701;DHT22;71609;42.630;23.380;2024-01-15T00:14:08;20.90;25.40
80701;DHT22;71609;42.630;23.380;2024-01-15T00:16:34;20.90;25.40
80701;DHT22;71609;42.630;23.380;2024-01-15T00:19:00;20.80;25.40
80701;DHT22;71609;42.630;23.380;2024-01-15T00:21:26;20.80;25.40
80701;DHT22;71609;42.630;23.380;2024-01-15T00:23:53;20.80;25.40
80701;DHT22;71609;42.630;23.380;2024-01-15T00:26:19;20.90;25.40
80701;DHT22;71609;42.630;23.380;2024-01-15T00:28:45;20.80;25.40
80701;DHT22;71609;42.630;23.380;2024-01-15T00:31:10;20.80;25.40
80701;DHT22;71609;42.630;23.380;2024-01-15T00:33:36;20.90;25.40
80701;DHT22;71609;42.630;23.380;2024-01-15T00:36:02;20.90;25.40
80701;DHT22;71609;42.630;23.380;2024-01-15T00:38:28;20.80;25.40
80701;DHT22;71609;42.630;23.380;2024-01-15T00:40:55;20.90;25.40
80701;DHT22;71609;42.630;23.380;2024-01-15T00:43:20;20.80;25.40
80701;DHT22;71609;42.630;23.380;2024-01-15T00:45:46;20.80;25.40
80701;DHT22;71609;42.630;23.380;2024-01-15T00:48:12;20.80;25.40
80701;DHT22;71609;42.630;23.380;2024-01-15T00:50:38;20.80;25.40
80701;DHT22;71609;42.630;23.380;2024-01-15T00:53:04;20.80;25.30
80701;DHT22;71609;42.630;23.380;2024-01-15T00:55:29;20.80;25.40
80701;DHT22;71609;42.630;23.380;2024-01-15T00:57:55;20.80;25.40
80701;DHT22;71609;42.630;23.380;2024-01-15T01:00:21;20.80;25.40
80701;DHT22;71609;42.630;23.380;2024-01-15T01:02:47;20.80;25.40
80701;DHT22;71609;42.630;23.380;2024-01-15T01:05:12;20.80;25.40
80701;DHT22;71609;42.630;23.380;2024-01-15T01:07:38;20.80;25.40
80701;DHT22;71609;42.630;23.380;2024-01-15T01:10:04;20.80;25.40
80701;DHT22;71609;42.630;23.380;2024-01-15T01:12:30;20.80;25.40
80701;DHT22;71609;42.630;23.380;2024-01-15T01:14:56;20.80;25.40
80701;DHT22;71609;42.630;23.380;2024-01-15T01:17:22;20.80;25.40
80701;DHT22;71609;42.630;23.380;2024-01-15T01:19:49;20.80;25.40
80701;DHT22;71609;42.630;23.380;2024-01-15T01:22:15;20.80;25.40
80701;DHT22;71609;42.630;23.380;2024-01-15T01:24:41;20.80;25.40
80701;DHT22;71609;42.630;23.380;2024-01-15T01:27:06;20.80;25.40
80701;DHT22;71609;42.630;23.380;2024-01-15T01:29:32;20.80;25.40
80701;DHT22;71609;42.630;23.380;2024-01-15T01:31:58;20.80;25.40
80701;DHT22;71609;42.630;23.380;2024-01-15T01:34:24;20.80;25.40
80701;DHT22;71609;42.630;23.380;2024-01-15T01:36:50;20.80;25.40
80701;DHT22;71609;42.630;23.380;2024-01-15T01:39:15;20.80;25.40
80701;DHT22;71609;42.630;23.380;2024-01-15T01:41:41;20.80;25.40
80701;DHT22;71609;42.630;23.380;2024-01-15T01:44:07;20.80;25.40
80701;DHT22;71609;42.630;23.380;2024-01-15T01:46:33;20.80;25.40
80701;DHT22;71609;42.630;23.380;2024-01-15T01:49:00;20.80;25.40
80701;DHT22;71609;42.630;23.380;2024-01-15T01:51:31;20.80;25.40
80701;DHT22;71609;42.630;23.380;2024-01-15T01:53:57;20.80;25.40
80701;DHT22;71609;42.630;23.380;2024-01-15T01:56:23;20.80;25.40
80701;DHT22;71609;42.630;23.380;2024-01-15T01:58:49;20.80;25.40
80701;DHT22;71609;42.630;23.380;2024-01-15T02:01:15;20.80;25.40
80701;DHT22;71609;42.630;23.380;2024-01-15T02:03:41;20.80;25.40
80701;DHT22;71609;42.630;23.380;2024-01-15T02:06:07;20.80;25.40
80701;DHT22;71609;42.630;23.380;2024-01-15T02:08:34;20.80;25.40
80701;DHT22;71609;42.630;23.380;2024-01-15T02:11:00;20.80;25.40
80701;DHT22;71609;42.630;23.380;2024-01-15T02:13:26;20.80;25.40
80701;DHT22;71609;42.630;23.380;2024-01-15T02:15:52;20.80;25.40
80701;DHT22;71609;42.630;23.380;2024-01-15T02:18:17;20.80;25.40
80701;DHT22;71609;42.630;23.380;2024-01-15T02:20:43;20.70;25.40
80701;DHT22;71609;42.630;23.380;2024-01-15T02:23:11;20.80;25.40
80701;DHT22;71609;42.630;23.380;2024-01-15T02:25:41;20.80;25.40
80701;DHT22;71609;42.630;23.380;2024-01-15T02:28:15;20.80;25.40
80701;DHT22;71609;42.630;23.380;2024-01-15T02:30:43;20.80;25.40
80701;DHT22;71609;42.630;23.380;2024-01-15T02:33:10;20.80;25.40
80701;DHT22;71609;42.630;23.380;2024-01-15T02:35:36;20.70;25.30
80701;DHT22;71609;42.630;23.380;2024-01-15T02:38:03;20.70;25.40
80701;DHT22;71609;42.630;23.380;2024-01-15T02:40:29;20.80;25.40
80701;DHT22;71609;42.630;23.380;2024-01-15T02:42:54;20.80;25.40
80701;DHT22;71609;42.630;23.380;2024-01-15T02:45:21;20.70;25.40
80701;DHT22;71609;42.630;23.380;2024-01-15T02:47:47;20.70;25.30
80701;DHT22;71609;42.630;23.380;2024-01-15T02:50:13;20.70;25.30
80701;DHT22;71609;42.630;23.380;2024-01-15T02:52:39;20.70;25.30
80701;DHT22;71609;42.630;23.380;2024-01-15T02:55:05;20.70;25.40
80701;DHT22;71609;42.630;23.380;2024-01-15T02:57:31;20.70;25.40
80701;DHT22;71609;42.630;23.380;2024-01-15T02:59:57;20.70;25.40
80701;DHT22;71609;42.630;23.380;2024-01-15T03:02:23;20.70;25.50
80701;DHT22;71609;42.630;23.380;2024-01-15T03:04:48;20.70;25.40
80701;DHT22;71609;42.630;23.380;2024-01-15T03:07:14;20.70;25.40
80701;DHT22;71609;42.630;23.380;2024-01-15T03:09:40;20.80;25.40
80701;DHT22;71609;42.630;23.380;2024-01-15T03:12:06;20.70;25.40
80701;DHT22;71609;42.630;23.380;2024-01-15T03:14:32;20.70;25.40
80701;DHT22;71609;42.630;23.380;2024-01-15T03:16:58;20.80;25.50
80701;DHT22;71609;42.630;23.380;2024-01-15T03:19:24;20.70;25.40
80701;DHT22;71609;42.630;23.380;2024-01-15T03:21:49;20.80;25.50
80701;DHT22;71609;42.630;23.380;2024-01-15T03:24:15;20.70;25.40
80701;DHT22;71609;42.630;23.380;2024-01-15T03:26:41;20.80;25.40
80701;DHT22;71609;42.630;23.380;2024-01-15T03:29:07;20.80;25.40
80701;DHT22;71609;42.630;23.380;2024-01-15T03:31:33;20.70;25.40
80701;DHT22;71609;42.630;23.380;2024-01-15T03:33:59;20.70;25.40
80701;DHT22;71609;42.630;23.380;2024-01-15T03:36:25;20.80;25.50
80701;DHT22;71609;42.630;23.380;2024-01-15T03:38:51;20.70;25.40
80701;DHT22;71609;42.630;23.380;2024-01-15T03:41:17;20.70;25.40
80701;DHT22;71609;42.630;23.380;2024-01-15T03:43:42;20.70;25.40
80701;DHT22;71609;42.630;23.380;2024-01-15T03:46:08;20.70;25.40
80701;DHT22;71609;42.630;23.380;2024-01-15T03:48:34;20.80;25.40
80701;DHT22;71609;42.630;23.380;2024-01-15T03:51:00;20.70;25.40
80701;DHT22;71609;42.630;23.380;2024-01-15T03:53:26;20.70;25.40
80701;DHT22;71609;42.630;23.380;2024-01-15T03:55:52;20.70;25.40
80701;DHT22;71609;42.630;23.380;2024-01-15T03:58:18;20.70;25.30
80701;DHT22;71609;42.630;23.380;2024-01-15T04:00:44;20.70;25.40
80701;DHT22;71609;42.630;23.380;2024-01-15T04:03:09;20.70;25.40
80701;DHT22;71609;42.630;23.380;2024-01-15T04:05:35;20.70;25.40
80701;DHT22;71609;42.630;23.380;2024-01-15T04:08:01;20.70;25.50
80701;DHT22;71609;42.630;23.380;2024-01-15T04:10:27;20.70;25.40
80701;DHT22;71609;42.630;23.380;2024-01-15T04:12:52;20.70;25.40
80701;DHT22;71609;42.630;23.380;2024-01-15T04:15:18;20.80;25.40
80701;DHT22;71609;42.630;23.380;2024-01-15T04:17:44;20.80;25.50
80701;DHT22;71609;42.630;23.380;2024-01-15T04:20:10;20.70;25.40
80701;DHT22;71609;42.630;23.380;2024-01-15T04:22:36;20.80;25.40
80701;DHT22;71609;42.630;23.380;2024-01-15T04:25:03;20.70;25.40
80701;DHT22;71609;42.630;23.380;2024-01-15T04:27:29;20.70;25.40
80701;DHT22;71609;42.630;23.380;2024-01-15T04:29:55;20.70;25.40
80701;DHT22;71609;42.630;23.380;2024-01-15T04:32:20;20.80;25.50
80701;DHT22;71609;42.630;23.380;2024-01-15T04:34:46;20.80;25.40
80701;DHT22;71609;42.630;23.380;2024-01-15T04:37:13;20.70;25.40
80701;DHT22;71609;42.630;23.380;2024-01-15T04:39:39;20.70;25.40
80701;DHT22;71609;42.630;23.380;2024-01-15T04:42:05;20.70;25.40
80701;DHT22;71609;42.630;23.380;2024-01-15T04:44:31;20.70;25.40
80701;DHT22;71609;42.630;23.380;2024-01-15T04:46:56;20.70;25.40
80701;DHT22;71609;42.630;23.380;2024-01-15T04:49:22;20.70;25.40
80701;DHT22;71609;42.630;23.380;2024-01-15T04:51:48;20.70;25.40
80701;DHT22;71609;42.630;23.380;2024-01-15T04:54:14;20.70;25.30
80701;DHT22;71609;42.630;23.380;2024-01-15T04:56:46;20.80;25.40
80701;DHT22;71609;42.630;23.380;2024-01-15T04:59:13;20.70;25.30
80701;DHT22;71609;42.630;23.380;2024-01-15T05:01:40;20.70;25.30
80701;DHT22;71609;42.630;23.380;2024-01-15T05:04:05;20.70;25.40
80701;DHT22;71609;42.630;23.380;2024-01-15T05:06:31;20.70;25.40
80701;DHT22;71609;42.630;23.380;2024-01-15T05:08:57;20.70;25.20
80701;DHT22;71609;42.630;23.380;2024-01-15T05:11:23;20.70;23.90
80701;DHT22;71609;42.630;23.380;2024-01-15T05:13:48;20.70;23.00
80701;DHT22;71609;42.630;23.380;2024-01-15T05:16:14;20.60;24.10
80701;DHT22;71609;42.630;23.380;2024-01-15T05:18:40;20.60;21.50
80701;DHT22;71609;42.630;23.380;2024-01-15T05:21:06;20.50;20.90
80701;DHT22;71609;42.630;23.380;2024-01-15T05:23:32;20.40;20.80
80701;DHT22;71609;42.630;23.380;2024-01-15T05:25:58;20.30;20.60
80701;DHT22;71609;42.630;23.380;2024-01-15T05:28:24;20.20;20.50
80701;DHT22;71609;42.630;23.380;2024-01-15T05:30:49;20.20;20.40
80701;DHT22;71609;42.630;23.380;2024-01-15T05:33:16;20.10;20.50
80701;DHT22;71609;42.630;23.380;2024-01-15T05:35:42;20.00;20.60
80701;DHT22;71609;42.630;23.380;2024-01-15T05:38:08;19.90;20.30
80701;DHT22;71609;42.630;23.380;2024-01-15T05:40:34;19.80;20.50
80701;DHT22;71609;42.630;23.380;2024-01-15T05:43:00;19.80;20.30
80701;DHT22;71609;42.630;23.380;2024-01-15T05:45:30;19.70;20.70
80701;DHT22;71609;42.630;23.380;2024-01-15T05:47:56;19.70;21.50
80701;DHT22;71609;42.630;23.380;2024-01-15T05:50:22;19.60;21.10
80701;DHT22;71609;42.630;23.380;2024-01-15T05:52:48;19.50;21.10
80701;DHT22;71609;42.630;23.380;2024-01-15T05:55:14;19.50;21.20
80701;DHT22;71609;42.630;23.380;2024-01-15T05:57:39;19.50;21.40
80701;DHT22;71609;42.630;23.380;2024-01-15T06:00:06;19.50;21.50
80701;DHT22;71609;42.630;23.380;2024-01-15T06:02:32;19.50;21.40
80701;DHT22;71609;42.630;23.380;2024-01-15T06:07:34;19.50;21.50
80701;DHT22;71609;42.630;23.380;2024-01-15T06:10:01;19.60;21.50
80701;DHT22;71609;42.630;23.380;2024-01-15T06:12:28;19.60;21.50
80701;DHT22;71609;42.630;23.380;2024-01-15T06:14:54;19.60;21.80
80701;DHT22;71609;42.630;23.380;2024-01-15T06:17:19;19.70;22.40
80701;DHT22;71609;42.630;23.380;2024-01-15T06:19:45;19.70;22.60
80701;DHT22;71609;42.630;23.380;2024-01-15T06:22:11;19.70;22.70
80701;DHT22;71609;42.630;23.380;2024-01-15T06:24:37;19.80;22.60
80701;DHT22;71609;42.630;23.380;2024-01-15T06:27:02;19.80;22.70
80701;DHT22;71609;42.630;23.380;2024-01-15T06:29:30;19.80;22.60
80701;DHT22;71609;42.630;23.380;2024-01-15T06:31:56;19.90;23.20
80701;DHT22;71609;42.630;23.380;2024-01-15T06:34:43;19.90;23.60
80701;DHT22;71609;42.630;23.380;2024-01-15T06:37:08;19.90;23.60
80701;DHT22;71609;42.630;23.380;2024-01-15T06:39:34;19.90;23.80
80701;DHT22;71609;42.630;23.380;2024-01-15T06:42:00;19.90;23.70
80701;DHT22;71609;42.630;23.380;2024-01-15T06:44:26;19.90;23.80
80701;DHT22;71609;42.630;23.380;2024-01-15T06:46:51;19.90;24.30
80701;DHT22;71609;42.630;23.380;2024-01-15T06:49:17;19.90;24.90
80701;DHT22;71609;42.630;23.380;2024-01-15T06:51:43;19.90;25.20
80701;DHT22;71609;42.630;23.380;2024-01-15T06:54:08;19.90;25.10
80701;DHT22;71609;42.630;23.380;2024-01-15T06:56:34;19.90;25.10
80701;DHT22;71609;42.630;23.380;2024-01-15T06:59:00;19.90;24.90
80701;DHT22;71609;42.630;23.380;2024-01-15T07:01:26;20.00;24.30
80701;DHT22;71609;42.630;23.380;2024-01-15T07:03:52;20.00;24.50
80701;DHT22;71609;42.630;23.380;2024-01-15T07:06:18;20.00;25.00
80701;DHT22;71609;42.630;23.380;2024-01-15T07:08:43;20.00;26.20
80701;DHT22;71609;42.630;23.380;2024-01-15T07:11:09;20.10;25.30
80701;DHT22;71609;42.630;23.380;2024-01-15T07:13:38;20.20;24.90
80701;DHT22;71609;42.630;23.380;2024-01-15T07:16:04;20.20;25.00
80701;DHT22;71609;42.630;23.380;2024-01-15T07:18:30;20.20;24.00
80701;DHT22;71609;42.630;23.380;2024-01-15T07:20:56;20.20;24.10
80701;DHT22;71609;42.630;23.380;2024-01-15T07:23:22;20.20;24.30
80701;DHT22;71609;42.630;23.380;2024-01-15T07:25:48;20.30;24.40
80701;DHT22;71609;42.630;23.380;2024-01-15T07:28:13;20.30;25.00
80701;DHT22;71609;42.630;23.380;2024-01-15T07:30:39;20.30;25.40
80701;DHT22;71609;42.630;23.380;2024-01-15T07:33:05;20.40;25.50
80701;DHT22;71609;42.630;23.380;2024-01-15T07:35:32;20.40;25.20
80701;DHT22;71609;42.630;23.380;2024-01-15T07:37:57;20.40;25.20
80701;DHT22;71609;42.630;23.380;2024-01-15T07:40:24;20.50;25.50
80701;DHT22;71609;42.630;23.380;2024-01-15T07:42:51;20.50;25.90
80701;DHT22;71609;42.630;23.380;2024-01-15T07:45:17;20.50;26.30
80701;DHT22;71609;42.630;23.380;2024-01-15T07:47:43;20.50;26.50
80701;DHT22;71609;42.630;23.380;2024-01-15T07:50:09;20.50;27.10
80701;DHT22;71609;42.630;23.380;2024-01-15T07:52:35;20.60;26.70
80701;DHT22;71609;42.630;23.380;2024-01-15T07:55:01;20.60;26.50
80701;DHT22;71609;42.630;23.380;2024-01-15T07:57:29;20.70;26.20
80701;DHT22;71609;42.630;23.380;2024-01-15T07:59:55;20.70;26.90
80701;DHT22;71609;42.630;23.380;2024-01-15T08:02:20;20.70;27.30
80701;DHT22;71609;42.630;23.380;2024-01-15T08:04:47;20.80;26.50
80701;DHT22;71609;42.630;23.380;2024-01-15T08:07:13;20.80;25.90
80701;DHT22;71609;42.630;23.380;2024-01-15T08:09:38;20.80;25.50
80701;DHT22;71609;42.630;23.380;2024-01-15T08:12:04;20.90;25.50
80701;DHT22;71609;42.630;23.380;2024-01-15T08:14:31;20.90;25.50
80701;DHT22;71609;42.630;23.380;2024-01-15T08:16:57;20.90;25.70
80701;DHT22;71609;42.630;23.380;2024-01-15T08:19:23;20.90;26.10
80701;DHT22;71609;42.630;23.380;2024-01-15T08:21:49;20.90;26.60
80701;DHT22;71609;42.630;23.380;2024-01-15T08:24:15;20.90;26.80
80701;DHT22;71609;42.630;23.380;2024-01-15T08:26:41;20.90;26.90
80701;DHT22;71609;42.630;23.380;2024-01-15T08:29:06;21.00;26.80
80701;DHT22;71609;42.630;23.380;2024-01-15T08:31:32;21.00;27.20
80701;DHT22;71609;42.630;23.380;2024-01-15T08:33:58;21.00;27.00
80701;DHT22;71609;42.630;23.380;2024-01-15T08:36:24;21.10;27.00
80701;DHT22;71609;42.630;23.380;2024-01-15T08:38:50;21.10;27.00
80701;DHT22;71609;42.630;23.380;2024-01-15T08:41:16;21.10;26.80
80701;DHT22;71609;42.630;23.380;2024-01-15T08:43:42;21.10;27.00
80701;DHT22;71609;42.630;23.380;2024-01-15T08:46:08;21.10;27.00
80701;DHT22;71609;42.630;23.380;2024-01-15T08:48:34;21.20;27.00
80701;DHT22;71609;42.630;23.380;2024-01-15T08:51:00;21.20;27.10
80701;DHT22;71609;42.630;23.380;2024-01-15T08:53:26;21.30;27.10
80701;DHT22;71609;42.630;23.380;2024-01-15T08:55:52;21.20;27.10
